createdAt,value
2018-08-09T00:01:53.020Z,2.50
2018-08-09T00:04:21.953Z,3.00
2018-08-09T00:06:51.780Z,3.33
2018-08-09T00:09:21.443Z,2.95
2018-08-09T00:11:51.716Z,2.85
2018-08-09T00:14:21.953Z,3.05
2018-08-09T00:16:51.005Z,2.92
2018-08-09T00:19:20.912Z,2.60
2018-08-09T00:21:49.760Z,2.83
2018-08-09T00:24:19.406Z,2.60
2018-08-09T00:26:52.764Z,2.65
2018-08-09T00:29:22.414Z,3.10
2018-08-09T00:31:52.082Z,3.17
2018-08-09T00:34:22.342Z,2.77
2018-08-09T00:36:53.147Z,2.27
2018-08-09T00:39:22.081Z,2.52
2018-08-09T00:41:51.012Z,2.33
2018-08-09T00:44:20.019Z,2.45
2018-08-09T00:46:49.770Z,2.60
2018-08-09T00:49:19.495Z,2.33
2018-08-09T00:51:48.416Z,2.20
2018-08-09T00:54:17.296Z,1.65
2018-08-09T00:56:46.259Z,2.30
2018-08-09T00:59:15.823Z,1.90
2018-08-09T01:01:44.729Z,2.22
2018-08-09T01:04:13.837Z,2.20
2018-08-09T01:06:43.428Z,2.10
2018-08-09T01:09:15.286Z,1.92
2018-08-09T01:11:44.489Z,2.10
2018-08-09T01:14:13.449Z,2.00
2018-08-09T01:16:42.390Z,1.82
2018-08-09T01:19:11.371Z,1.95
2018-08-09T01:21:40.428Z,2.00
2018-08-09T01:24:09.428Z,2.27
2018-08-09T01:26:38.326Z,2.08
2018-08-09T01:29:07.365Z,2.00
2018-08-09T01:31:38.400Z,1.80
2018-08-09T01:34:08.723Z,1.92
2018-08-09T01:36:38.885Z,2.10
2018-08-09T01:39:09.440Z,1.70
2018-08-09T01:41:38.390Z,2.20
2018-08-09T01:44:07.898Z,1.85
2018-08-09T01:46:36.867Z,1.70
2018-08-09T01:49:05.916Z,1.95
2018-08-09T01:51:34.921Z,2.02
2018-08-09T01:54:04.222Z,2.02
2018-08-09T01:56:33.355Z,1.80
2018-08-09T01:59:02.314Z,1.98
2018-08-09T02:01:31.490Z,2.30
2018-08-09T02:04:00.517Z,2.30
2018-08-09T02:06:29.505Z,2.50
2018-08-09T02:09:02.782Z,1.80
2018-08-09T02:11:31.714Z,2.30
2018-08-09T02:14:00.795Z,2.67
2018-08-09T02:16:29.788Z,2.40
2018-08-09T02:18:58.667Z,2.72
2018-08-09T02:21:27.670Z,2.58
2018-08-09T02:23:56.800Z,2.17
2018-08-09T02:26:25.739Z,2.47
2018-08-09T02:28:55.579Z,1.75
2018-08-09T02:31:24.473Z,2.22
2018-08-09T02:33:53.375Z,2.40
2018-08-09T02:36:23.040Z,2.12
2018-08-09T02:38:52.283Z,1.75
2018-08-09T02:41:21.492Z,1.82
2018-08-09T02:43:50.614Z,2.08
2018-08-09T02:46:19.561Z,1.80
2018-08-09T02:48:48.975Z,1.62
2018-08-09T02:51:18.051Z,1.82
2018-08-09T02:53:47.076Z,2.47
2018-08-09T02:56:15.975Z,1.85
2018-08-09T02:58:44.965Z,2.00
2018-08-09T03:01:13.985Z,2.22
2018-08-09T03:03:43.001Z,2.40
2018-08-09T03:06:12.788Z,2.65
2018-08-09T03:08:41.988Z,2.72
2018-08-09T03:11:11.648Z,2.30
2018-08-09T03:13:40.724Z,2.40
2018-08-09T03:16:09.588Z,2.40
2018-08-09T03:18:39.743Z,2.50
2018-08-09T03:21:08.824Z,2.67
2018-08-09T03:23:37.924Z,2.65
2018-08-09T03:26:06.913Z,2.40
2018-08-09T03:28:37.363Z,2.35
2018-08-09T03:31:06.420Z,2.25
2018-08-09T03:33:35.471Z,1.92
2018-08-09T03:36:05.487Z,2.00
2018-08-09T03:38:34.733Z,2.25
2018-08-09T03:41:03.847Z,2.02
2018-08-09T03:43:32.933Z,2.60
2018-08-09T03:46:01.807Z,2.98
2018-08-09T03:48:30.939Z,2.12
2018-08-09T03:51:00.020Z,2.40
2018-08-09T03:53:29.164Z,2.58
2018-08-09T03:55:58.211Z,2.42
2018-08-09T03:58:27.382Z,2.27
2018-08-09T04:00:56.378Z,2.37
2018-08-09T04:03:25.528Z,2.37
2018-08-09T04:05:54.655Z,2.52
2018-08-09T04:08:23.652Z,2.00
2018-08-09T04:10:52.690Z,2.37
2018-08-09T04:13:21.811Z,2.58
2018-08-09T04:15:51.617Z,2.62
2018-08-09T04:18:20.766Z,2.42
2018-08-09T04:20:49.852Z,2.52
2018-08-09T04:23:18.985Z,2.62
2018-08-09T04:25:48.165Z,2.67
2018-08-09T04:28:17.200Z,2.98
2018-08-09T04:30:46.088Z,2.85
2018-08-09T04:33:15.231Z,2.72
2018-08-09T04:35:44.570Z,2.75
2018-08-09T04:38:13.804Z,2.33
2018-08-09T04:40:43.721Z,2.70
2018-08-09T04:43:12.719Z,2.77
2018-08-09T04:45:41.691Z,3.00
2018-08-09T04:48:10.812Z,2.83
2018-08-09T04:50:39.733Z,3.08
2018-08-09T04:53:08.679Z,2.95
2018-08-09T04:55:37.732Z,3.20
2018-08-09T04:58:07.057Z,2.60
2018-08-09T05:00:35.974Z,3.05
2018-08-09T05:03:05.245Z,2.67
2018-08-09T05:05:34.125Z,2.50
2018-08-09T05:08:03.652Z,3.05
2018-08-09T05:10:32.745Z,2.70
2018-08-09T05:13:01.725Z,2.12
2018-08-09T05:15:30.840Z,2.70
2018-08-09T05:17:59.766Z,3.10
2018-08-09T05:20:28.864Z,2.95
2018-08-09T05:22:57.978Z,2.50
2018-08-09T05:25:27.009Z,3.55
2018-08-09T05:27:56.045Z,2.50
2018-08-09T05:30:25.013Z,2.47
2018-08-09T05:32:53.969Z,3.02
2018-08-09T05:35:23.033Z,2.37
2018-08-09T05:37:52.061Z,3.20
2018-08-09T05:40:21.040Z,2.77
2018-08-09T05:42:50.015Z,2.47
2018-08-09T05:45:18.988Z,1.75
2018-08-09T05:47:48.047Z,1.77
2018-08-09T05:50:17.077Z,1.65
2018-08-09T05:52:46.009Z,2.37
2018-08-09T05:55:14.965Z,1.65
2018-08-09T05:57:44.165Z,1.30
2018-08-09T06:00:14.333Z,2.05
2018-08-09T06:02:50.402Z,1.92
2018-08-09T06:05:20.621Z,1.60
2018-08-09T06:07:51.733Z,1.80
2018-08-09T06:10:20.922Z,1.37
2018-08-09T06:12:49.935Z,1.62
2018-08-09T06:15:18.974Z,1.52
2018-08-09T06:17:47.919Z,1.90
2018-08-09T06:20:16.860Z,1.80
2018-08-09T06:22:46.706Z,1.55
2018-08-09T06:25:17.575Z,1.50
2018-08-09T06:27:48.642Z,1.70
2018-08-09T06:30:37.284Z,2.22
2018-08-09T06:33:41.772Z,1.60
2018-08-09T06:39:37.391Z,1.40
2018-08-09T06:42:09.138Z,1.37
2018-08-09T06:44:38.075Z,1.80
2018-08-09T06:47:07.062Z,1.85
2018-08-09T06:49:35.964Z,1.65
2018-08-09T06:52:05.028Z,1.75
2018-08-09T06:54:34.072Z,1.65
2018-08-09T06:57:04.269Z,2.05
2018-08-09T06:59:33.279Z,1.65
2018-08-09T07:02:03.016Z,1.50
2018-08-09T07:04:31.939Z,1.72
2018-08-09T07:07:00.913Z,1.50
2018-08-09T07:09:29.781Z,1.72
2018-08-09T07:11:58.901Z,1.95
2018-08-09T07:14:27.803Z,1.87
2018-08-09T07:16:56.762Z,1.95
2018-08-09T07:19:25.754Z,2.22
2018-08-09T07:21:54.713Z,1.80
2018-08-09T07:24:23.600Z,2.08
2018-08-09T07:26:52.733Z,2.08
2018-08-09T07:29:21.616Z,2.22
2018-08-09T07:31:50.629Z,2.12
2018-08-09T07:34:19.599Z,2.22
2018-08-09T07:36:48.714Z,2.33
2018-08-09T07:39:17.625Z,2.22
2018-08-09T07:41:46.543Z,2.00
2018-08-09T07:44:15.426Z,1.87
2018-08-09T07:46:44.437Z,1.90
2018-08-09T07:49:13.882Z,2.20
2018-08-09T07:51:43.060Z,2.72
2018-08-09T07:54:12.125Z,2.40
2018-08-09T07:56:41.081Z,2.35
2018-08-09T07:59:11.127Z,2.00
2018-08-09T08:01:40.073Z,2.40
2018-08-09T08:04:09.120Z,2.10
2018-08-09T08:06:42.913Z,2.02
2018-08-09T08:09:15.420Z,2.00
2018-08-09T08:11:45.575Z,2.30
2018-08-09T08:14:15.920Z,2.60
2018-08-09T08:16:47.995Z,2.40
2018-08-09T08:19:18.220Z,2.40
2018-08-09T08:21:53.039Z,2.22
2018-08-09T08:24:23.428Z,2.80
2018-08-09T08:26:55.756Z,2.60
2018-08-09T08:29:29.936Z,2.87
2018-08-09T08:32:00.493Z,2.58
2018-08-09T08:34:30.407Z,3.35
2018-08-09T08:37:00.138Z,2.85
2018-08-09T08:39:30.597Z,2.80
2018-08-09T08:42:01.921Z,2.40
2018-08-09T08:44:45.385Z,3.17
2018-08-09T08:47:25.756Z,3.10
2018-08-09T08:49:56.267Z,2.27
2018-08-09T08:52:28.141Z,2.60
2018-08-09T08:54:57.173Z,2.45
2018-08-09T08:57:29.370Z,2.70
2018-08-09T08:59:58.507Z,2.67
2018-08-09T09:02:27.594Z,3.20
2018-08-09T09:04:56.591Z,2.58
2018-08-09T09:07:26.797Z,3.50
2018-08-09T09:10:27.469Z,2.52
2018-08-09T09:12:57.894Z,2.83
2018-08-09T09:15:26.769Z,2.67
2018-08-09T09:17:55.664Z,2.40
2018-08-09T09:20:24.613Z,3.02
2018-08-09T09:22:53.593Z,2.70
2018-08-09T09:25:22.625Z,2.58
2018-08-09T09:27:51.708Z,2.58
2018-08-09T09:30:20.626Z,2.47
2018-08-09T09:32:49.508Z,2.60
2018-08-09T09:35:18.611Z,2.85
2018-08-09T09:37:47.712Z,2.58
2018-08-09T09:40:16.620Z,2.55
2018-08-09T09:42:46.242Z,2.02
2018-08-09T09:45:15.145Z,2.40
2018-08-09T09:47:44.135Z,2.87
2018-08-09T09:50:13.995Z,2.60
2018-08-09T09:52:44.060Z,2.80
2018-08-09T09:55:12.977Z,2.58
2018-08-09T09:57:41.924Z,2.65
2018-08-09T10:00:15.999Z,2.42
2018-08-09T10:02:46.332Z,2.47
2018-08-09T10:05:15.983Z,2.33
2018-08-09T10:07:44.932Z,2.72
2018-08-09T10:10:13.931Z,2.90
2018-08-09T10:12:43.823Z,2.55
2018-08-09T10:15:13.217Z,2.77
2018-08-09T10:17:42.286Z,2.90
2018-08-09T10:20:12.028Z,2.47
2018-08-09T10:22:40.933Z,2.77
2018-08-09T10:25:09.911Z,2.45
2018-08-09T10:27:38.973Z,2.72
2018-08-09T10:30:08.354Z,2.42
2018-08-09T10:32:38.013Z,2.30
2018-08-09T10:35:06.940Z,2.55
2018-08-09T10:37:36.012Z,2.62
2018-08-09T10:40:05.365Z,2.95
2018-08-09T10:42:34.295Z,2.85
2018-08-09T10:45:03.219Z,2.60
2018-08-09T10:47:32.283Z,2.77
2018-08-09T10:50:01.733Z,2.75
2018-08-09T10:52:30.670Z,2.98
2018-08-09T10:54:59.679Z,2.72
2018-08-09T10:57:28.660Z,2.80
2018-08-09T10:59:59.094Z,3.10
2018-08-09T11:02:28.145Z,3.17
2018-08-09T11:04:57.661Z,2.60
2018-08-09T11:07:26.638Z,2.90
2018-08-09T11:09:55.794Z,3.25
2018-08-09T11:12:25.017Z,2.90
2018-08-09T11:14:53.928Z,2.60
2018-08-09T11:17:22.865Z,3.02
2018-08-09T11:19:51.820Z,3.37
2018-08-09T11:22:20.851Z,2.50
2018-08-09T11:24:50.132Z,3.08
2018-08-09T11:27:19.356Z,3.02
2018-08-09T11:29:48.460Z,2.77
2018-08-09T11:32:17.559Z,3.20
2018-08-09T11:34:46.449Z,2.70
2018-08-09T11:37:15.478Z,3.15
2018-08-09T11:39:44.557Z,2.45
2018-08-09T11:42:13.456Z,3.20
2018-08-09T11:44:42.403Z,3.37
2018-08-09T11:47:12.334Z,3.37
2018-08-09T11:49:41.425Z,2.62
2018-08-09T11:52:13.722Z,3.00
2018-08-09T11:54:43.771Z,3.08
2018-08-09T11:57:14.589Z,3.70
2018-08-09T11:59:49.994Z,3.40
2018-08-09T12:02:22.637Z,3.20
2018-08-09T12:04:53.336Z,3.00
2018-08-09T12:07:35.544Z,3.22
2018-08-09T12:10:08.437Z,3.55
2018-08-09T12:12:43.082Z,3.17
2018-08-09T12:15:15.640Z,2.92
2018-08-09T12:17:46.083Z,3.37
2018-08-09T12:20:19.676Z,3.10
2018-08-09T12:23:02.267Z,3.45
2018-08-09T12:25:42.216Z,3.05
2018-08-09T12:28:14.652Z,3.58
2018-08-09T12:30:45.036Z,2.85
2018-08-09T12:33:37.036Z,3.20
2018-08-09T12:36:10.459Z,3.55
2018-08-09T12:38:48.766Z,3.65
2018-08-09T12:41:23.480Z,3.30
2018-08-09T12:44:12.194Z,3.30
2018-08-09T12:54:40.307Z,3.15
2018-08-09T13:00:16.177Z,3.15
2018-08-09T13:08:47.836Z,3.30
2018-08-09T13:19:31.588Z,3.15
2018-08-09T13:33:17.031Z,3.27
2018-08-09T13:38:36.872Z,3.15
2018-08-09T13:41:05.844Z,3.17
2018-08-09T13:43:34.722Z,2.98
2018-08-09T13:46:03.777Z,3.10
2018-08-09T13:48:32.899Z,3.40
2018-08-09T13:51:01.858Z,3.67
2018-08-09T13:53:30.869Z,2.98
2018-08-09T13:55:59.803Z,3.10
2018-08-09T13:58:28.899Z,3.37
2018-08-09T14:00:58.281Z,2.83
2018-08-09T14:03:27.259Z,3.02
2018-08-09T14:06:03.075Z,3.02
2018-08-09T14:08:33.098Z,3.42
2018-08-09T14:11:02.005Z,2.80
2018-08-09T14:13:31.106Z,3.20
2018-08-09T14:16:00.087Z,3.42
2018-08-09T14:18:30.043Z,3.10
2018-08-09T14:21:00.668Z,2.80
2018-08-09T14:23:29.672Z,3.05
2018-08-09T14:25:58.570Z,3.30
2018-08-09T14:28:28.299Z,2.77
2018-08-09T14:31:07.027Z,3.08
2018-08-09T14:33:36.073Z,2.92
2018-08-09T14:36:04.970Z,3.33
2018-08-09T14:38:34.071Z,2.72
2018-08-09T14:41:04.086Z,3.42
2018-08-09T14:43:33.125Z,3.10
2018-08-09T14:46:02.082Z,2.62
2018-08-09T14:48:31.005Z,3.50
2018-08-09T14:51:00.067Z,3.70
2018-08-09T14:53:29.061Z,3.87
2018-08-09T14:55:58.088Z,2.90
2018-08-09T14:58:27.884Z,2.92
2018-08-09T15:00:56.920Z,3.20
2018-08-09T15:03:25.850Z,3.52
2018-08-09T15:05:55.786Z,3.25
2018-08-09T15:08:24.754Z,3.02
2018-08-09T15:10:53.704Z,3.30
2018-08-09T15:13:29.425Z,3.08
2018-08-09T15:15:58.362Z,3.15
2018-08-09T15:18:33.080Z,3.05
2018-08-09T15:21:02.167Z,3.27
2018-08-09T15:23:32.296Z,3.05
2018-08-09T15:26:01.439Z,3.02
2018-08-09T15:28:31.781Z,3.05
2018-08-09T15:31:00.743Z,3.33
2018-08-09T15:33:30.880Z,2.83
2018-08-09T15:36:00.972Z,3.35
2018-08-09T15:38:30.025Z,3.20
2018-08-09T15:40:59.065Z,3.25
2018-08-09T15:43:28.023Z,2.90
2018-08-09T15:45:57.060Z,3.42
2018-08-09T15:48:27.117Z,2.60
2018-08-09T15:50:56.121Z,2.83
2018-08-09T15:53:25.049Z,3.55
2018-08-09T15:55:54.031Z,3.22
2018-08-09T15:58:22.918Z,3.25
2018-08-09T16:00:51.869Z,3.27
2018-08-09T16:03:20.836Z,3.20
2018-08-09T16:05:50.388Z,3.52
2018-08-09T16:08:19.460Z,3.17
2018-08-09T16:10:48.807Z,3.35
2018-08-09T16:13:17.891Z,3.17
2018-08-09T16:15:47.179Z,3.10
2018-08-09T16:18:16.293Z,2.83
2018-08-09T16:20:46.357Z,3.35
2018-08-09T16:23:16.235Z,2.98
2018-08-09T16:28:38.946Z,3.00
2018-08-09T16:31:09.124Z,2.30
2018-08-09T16:33:41.968Z,3.10
2018-08-09T16:36:12.105Z,2.58
2018-08-09T16:38:41.352Z,3.45
2018-08-09T16:41:13.444Z,3.22
2018-08-09T16:43:43.684Z,2.95
2018-08-09T16:46:13.669Z,3.10
2018-08-09T16:48:43.423Z,3.10
2018-08-09T16:51:12.318Z,3.02
2018-08-09T16:53:42.555Z,2.98
2018-08-09T16:56:11.474Z,3.10
2018-08-09T16:58:40.352Z,3.10
2018-08-09T17:01:10.624Z,3.47
2018-08-09T17:03:39.542Z,4.12
2018-08-09T17:06:08.567Z,2.70
2018-08-09T17:08:37.592Z,2.40
2018-08-09T17:11:06.465Z,2.52
2018-08-09T17:13:36.972Z,2.60
2018-08-09T17:16:05.852Z,2.30
2018-08-09T17:18:34.825Z,2.58
2018-08-09T17:21:03.878Z,3.33
2018-08-09T17:23:32.907Z,2.40
2018-08-09T17:26:01.785Z,2.80
2018-08-09T17:28:30.897Z,2.80
2018-08-09T17:30:59.949Z,3.10
2018-08-09T17:33:29.014Z,2.72
2018-08-09T17:35:57.962Z,2.35
2018-08-09T17:38:26.876Z,2.22
2018-08-09T17:40:55.897Z,2.30
2018-08-09T17:43:25.032Z,2.45
2018-08-09T17:45:56.118Z,1.90
2018-08-09T17:48:27.350Z,2.50
2018-08-09T17:50:56.448Z,2.08
2018-08-09T17:53:25.439Z,2.30
2018-08-09T17:55:54.421Z,2.37
2018-08-09T17:58:23.400Z,2.50
2018-08-09T18:00:52.423Z,1.98
2018-08-09T18:03:22.684Z,2.25
2018-08-09T18:05:52.749Z,2.12
2018-08-09T18:08:21.734Z,2.20
2018-08-09T18:10:50.726Z,3.10
2018-08-09T18:13:19.846Z,2.80
2018-08-09T18:15:48.925Z,2.30
2018-08-09T18:18:20.853Z,2.40
2018-08-09T18:20:49.746Z,2.10
2018-08-09T18:23:20.830Z,2.58
2018-08-09T18:25:51.851Z,2.20
2018-08-09T18:28:21.968Z,2.27
2018-08-09T18:30:50.960Z,2.58
2018-08-09T18:33:21.179Z,2.47
2018-08-09T18:35:50.752Z,2.62
2018-08-09T18:38:20.401Z,2.60
2018-08-09T18:40:52.995Z,2.25
2018-08-09T18:43:22.342Z,2.17
2018-08-09T18:45:52.259Z,2.60
2018-08-09T18:48:21.952Z,2.65
2018-08-09T18:50:53.695Z,2.47
2018-08-09T18:53:23.508Z,2.90
2018-08-09T18:55:52.411Z,2.72
2018-08-09T18:58:23.557Z,2.35
2018-08-09T19:00:52.454Z,3.05
2018-08-09T19:03:26.483Z,2.83
2018-08-09T19:05:59.046Z,2.70
2018-08-09T19:08:32.562Z,2.95
2018-08-09T19:11:02.666Z,2.85
2018-08-09T19:13:32.834Z,3.22
2018-08-09T19:16:02.720Z,3.20
2018-08-09T19:18:36.653Z,2.70
2018-08-09T19:21:06.290Z,2.77
2018-08-09T19:23:35.161Z,3.08
2018-08-09T19:26:07.629Z,2.83
2018-08-09T19:28:42.380Z,2.62
2018-08-09T19:31:24.394Z,3.45
2018-08-09T19:34:03.219Z,3.02
2018-08-09T19:36:43.046Z,3.12
2018-08-09T19:39:20.235Z,3.08
2018-08-09T19:41:53.505Z,3.45
2018-08-09T19:44:26.031Z,3.12
2018-08-09T19:46:55.834Z,3.72
2018-08-09T19:49:30.407Z,3.42
2018-08-09T19:52:11.370Z,5.08
2018-08-09T19:54:48.157Z,8.35
2018-08-09T19:57:24.193Z,6.25
2018-08-09T20:03:37.897Z,4.60
2018-08-09T20:06:15.085Z,4.05
2018-08-09T20:08:46.189Z,3.62
2018-08-09T20:11:22.470Z,4.10
2018-08-09T20:13:59.408Z,3.50
2018-08-09T20:16:28.425Z,3.20
2018-08-09T20:18:57.382Z,4.20
2018-08-09T20:21:26.693Z,3.08
2018-08-09T20:23:55.652Z,3.20
2018-08-09T20:26:24.538Z,3.58
2018-08-09T20:28:53.532Z,3.83
2018-08-09T20:31:22.458Z,3.62
2018-08-09T20:33:51.422Z,3.33
2018-08-09T20:36:20.425Z,3.85
2018-08-09T20:38:49.680Z,3.30
2018-08-09T20:41:18.840Z,4.12
2018-08-09T20:43:48.587Z,3.08
2018-08-09T20:46:17.899Z,2.95
2018-08-09T20:48:46.789Z,3.22
2018-08-09T20:51:16.316Z,3.30
2018-08-09T20:53:45.241Z,2.77
2018-08-09T20:56:14.257Z,3.52
2018-08-09T20:58:43.809Z,3.25
2018-08-09T21:01:14.029Z,3.58
2018-08-09T21:03:42.955Z,3.58
2018-08-09T21:06:13.068Z,3.00
2018-08-09T21:08:42.205Z,3.22
2018-08-09T21:11:11.207Z,3.05
2018-08-09T21:13:40.251Z,3.37
2018-08-09T21:16:09.159Z,3.72
2018-08-09T21:18:38.684Z,3.87
2018-08-09T21:21:07.678Z,2.83
2018-08-09T21:23:36.753Z,3.37
2018-08-09T21:26:05.778Z,3.27
2018-08-09T21:28:35.941Z,3.35
2018-08-09T21:31:04.836Z,3.50
2018-08-09T21:33:33.795Z,3.25
2018-08-09T21:36:02.763Z,3.22
2018-08-09T21:38:31.640Z,3.75
2018-08-09T21:41:00.607Z,3.35
2018-08-09T21:43:29.566Z,3.08
2018-08-09T21:45:58.449Z,3.12
2018-08-09T21:48:27.422Z,3.20
2018-08-09T21:50:56.333Z,2.75
2018-08-09T21:53:25.774Z,3.65
2018-08-09T21:55:54.696Z,3.75
2018-08-09T21:58:23.699Z,2.87
2018-08-09T22:00:58.411Z,3.52
2018-08-09T22:03:29.965Z,2.70
2018-08-09T22:06:04.274Z,3.05
2018-08-09T22:08:40.917Z,3.02
2018-08-09T22:11:17.210Z,2.55
2018-08-09T22:13:51.632Z,3.00
2018-08-09T22:17:23.484Z,2.90
2018-08-09T22:19:57.856Z,3.30
2018-08-09T22:22:29.101Z,2.67
2018-08-09T22:25:00.402Z,3.22
2018-08-09T22:27:35.774Z,2.95
2018-08-09T22:30:12.238Z,2.98
2018-08-09T22:32:43.586Z,2.60
2018-08-09T22:35:19.003Z,2.75
2018-08-09T22:37:50.876Z,2.05
2018-08-09T22:40:24.852Z,2.47
2018-08-09T22:43:06.192Z,2.27
2018-08-09T22:45:41.343Z,2.25
2018-08-09T22:48:16.188Z,2.60
2018-08-09T22:50:45.738Z,2.22
2018-08-09T22:53:15.462Z,2.50
2018-08-09T22:55:44.576Z,2.33
2018-08-09T22:58:13.540Z,2.08
2018-08-09T23:00:42.500Z,1.95
2018-08-09T23:03:12.626Z,1.95
2018-08-09T23:05:41.636Z,1.72
2018-08-09T23:08:12.056Z,1.98
2018-08-09T23:10:41.824Z,2.12
2018-08-09T23:13:10.742Z,1.82
2018-08-09T23:15:40.005Z,2.15
2018-08-09T23:18:09.298Z,2.08
2018-08-09T23:20:38.447Z,1.60
2018-08-09T23:23:07.415Z,2.25
2018-08-09T23:25:36.311Z,2.10
2018-08-09T23:28:05.685Z,1.70
2018-08-09T23:30:35.715Z,1.87
2018-08-09T23:33:04.652Z,1.57
2018-08-09T23:35:33.847Z,2.05
2018-08-09T23:38:02.904Z,1.82
2018-08-09T23:40:31.776Z,2.08
2018-08-09T23:43:00.855Z,2.00
2018-08-09T23:45:29.759Z,2.17
2018-08-09T23:47:58.666Z,1.75
2018-08-09T23:50:27.758Z,2.02
2018-08-09T23:52:56.667Z,1.80
2018-08-09T23:55:25.608Z,2.50
2018-08-09T23:57:54.563Z,2.42
